createdAt,value
2022-08-04T00:01:24.051Z,25.14
2022-08-04T00:03:59.729Z,24.31
2022-08-04T00:06:35.560Z,23.47
2022-08-04T00:09:09.746Z,23.47
2022-08-04T00:11:45.500Z,24.26
2022-08-04T00:14:17.117Z,24.82
2022-08-04T00:16:49.623Z,25.17
2022-08-04T00:19:26.296Z,25.18
2022-08-04T00:21:57.916Z,24.25
2022-08-04T00:24:31.140Z,23.37
2022-08-04T00:27:01.973Z,23.03
2022-08-04T00:29:33.834Z,23.80
2022-08-04T00:32:05.093Z,24.47
2022-08-04T00:34:36.272Z,24.89
2022-08-04T00:37:07.643Z,25.18
2022-08-04T00:39:38.962Z,25.18
2022-08-04T00:42:26.221Z,24.27
2022-08-04T00:45:04.307Z,23.27
2022-08-04T00:47:41.183Z,22.94
2022-08-04T00:50:12.800Z,23.79
2022-08-04T00:52:57.903Z,24.45
2022-08-04T00:55:44.752Z,24.81
2022-08-04T00:58:24.603Z,24.98
2022-08-04T01:00:59.716Z,24.87
2022-08-04T01:03:40.613Z,23.90
2022-08-04T01:06:13.706Z,23.22
2022-08-04T01:08:56.426Z,23.72
2022-08-04T01:11:56.219Z,24.19
2022-08-04T01:14:32.593Z,24.54
2022-08-04T01:17:20.931Z,24.74
2022-08-04T01:20:01.860Z,24.86
2022-08-04T01:22:43.886Z,24.97
2022-08-04T01:25:21.187Z,25.08
2022-08-04T01:28:08.307Z,24.36
2022-08-04T01:30:39.699Z,23.15
2022-08-04T01:33:14.485Z,22.68
2022-08-04T01:35:48.753Z,23.40
2022-08-04T01:38:22.026Z,23.98
2022-08-04T01:40:53.575Z,24.28
2022-08-04T01:43:24.995Z,24.47
2022-08-04T01:45:58.407Z,24.59
2022-08-04T01:48:29.853Z,24.66
2022-08-04T01:51:01.192Z,24.74
2022-08-04T01:53:33.253Z,24.79
2022-08-04T01:56:04.810Z,24.77
2022-08-04T01:58:36.460Z,24.69
2022-08-04T02:01:09.114Z,24.67
2022-08-04T02:04:19.703Z,24.54
2022-08-04T02:06:45.253Z,23.47
2022-08-04T02:09:18.278Z,22.84
2022-08-04T02:11:50.887Z,23.46
2022-08-04T02:14:40.459Z,24.00
2022-08-04T02:17:12.604Z,24.27
2022-08-04T02:20:05.612Z,24.45
2022-08-04T02:22:51.205Z,24.58
2022-08-04T02:25:25.700Z,24.41
2022-08-04T02:28:05.429Z,23.40
2022-08-04T02:30:40.984Z,22.63
2022-08-04T02:33:13.469Z,23.20
2022-08-04T02:35:46.745Z,23.67
2022-08-04T02:38:26.109Z,23.93
2022-08-04T02:41:00.157Z,24.12
2022-08-04T02:43:51.589Z,24.29
2022-08-04T02:46:23.670Z,24.46
2022-08-04T02:48:55.022Z,24.60
2022-08-04T02:51:27.484Z,24.53
2022-08-04T02:53:59.400Z,23.55
2022-08-04T02:56:31.820Z,22.77
2022-08-04T02:59:03.561Z,23.20
2022-08-04T03:01:35.023Z,23.77
2022-08-04T03:04:18.257Z,24.02
2022-08-04T03:07:14.391Z,24.21
2022-08-04T03:09:47.371Z,24.29
2022-08-04T03:12:28.447Z,24.32
2022-08-04T03:15:14.638Z,24.45
2022-08-04T03:18:03.330Z,24.59
2022-08-04T03:20:51.790Z,24.45
2022-08-04T03:23:35.743Z,23.38
2022-08-04T03:26:18.633Z,22.74
2022-08-04T03:29:04.577Z,23.40
2022-08-04T03:31:48.847Z,23.93
2022-08-04T03:34:26.849Z,24.23
2022-08-04T03:37:16.943Z,24.44
2022-08-04T03:40:03.957Z,24.60
2022-08-04T03:42:46.591Z,24.70
2022-08-04T03:45:30.917Z,24.58
2022-08-04T03:48:13.839Z,23.52
2022-08-04T03:51:35.397Z,22.79
2022-08-04T03:54:23.032Z,23.53
2022-08-04T03:57:13.241Z,24.04
2022-08-04T03:59:51.184Z,24.32
2022-08-04T04:02:36.804Z,24.53
2022-08-04T04:05:22.955Z,24.68
2022-08-04T04:08:18.705Z,24.53
2022-08-04T04:10:57.131Z,23.43
2022-08-04T04:13:31.259Z,22.83
2022-08-04T04:16:08.451Z,23.45
2022-08-04T04:19:02.259Z,24.03
2022-08-04T04:21:43.645Z,24.22
2022-08-04T04:24:33.941Z,24.39
2022-08-04T04:27:10.202Z,24.22
2022-08-04T04:30:04.691Z,23.16
2022-08-04T04:32:41.501Z,22.59
2022-08-04T04:35:19.877Z,23.33
2022-08-04T04:38:10.177Z,23.94
2022-08-04T04:40:46.026Z,24.09
2022-08-04T04:43:22.904Z,24.38
2022-08-04T04:46:17.313Z,24.60
2022-08-04T04:48:53.350Z,24.78
2022-08-04T04:51:28.670Z,24.62
2022-08-04T04:54:03.203Z,23.62
2022-08-04T04:56:38.314Z,23.46
2022-08-04T04:59:11.335Z,24.12
2022-08-04T05:01:53.424Z,24.56
2022-08-04T05:04:43.521Z,24.82
2022-08-04T05:07:35.853Z,24.88
2022-08-04T05:10:11.738Z,24.79
2022-08-04T05:14:38.593Z,23.89
2022-08-04T05:15:50.855Z,23.42
2022-08-04T05:18:23.647Z,24.13
2022-08-04T05:20:56.830Z,24.61
2022-08-04T05:23:29.310Z,24.78
2022-08-04T05:26:01.467Z,23.99
2022-08-04T05:28:35.769Z,23.44
2022-08-04T05:31:07.862Z,24.00
2022-08-04T05:33:46.731Z,24.63
2022-08-04T05:36:35.445Z,25.04
2022-08-04T05:39:13.688Z,24.64
2022-08-04T05:41:48.173Z,23.80
2022-08-04T05:44:27.541Z,23.85
2022-08-04T05:46:59.269Z,24.53
2022-08-04T05:49:30.801Z,25.14
2022-08-04T05:52:03.787Z,25.25
2022-08-04T05:54:35.308Z,24.48
2022-08-04T05:57:06.759Z,23.78
2022-08-04T05:59:39.172Z,23.58
2022-08-04T06:02:11.070Z,24.41
2022-08-04T06:04:42.883Z,25.20
2022-08-04T06:07:14.546Z,25.48
2022-08-04T06:09:45.785Z,24.82
2022-08-04T06:12:19.385Z,24.20
2022-08-04T06:14:51.472Z,23.92
2022-08-04T06:18:33.688Z,24.74
2022-08-04T06:20:18.046Z,25.31
2022-08-04T06:22:51.965Z,24.71
2022-08-04T06:25:23.829Z,24.15
2022-08-04T06:27:56.453Z,23.74
2022-08-04T06:30:27.977Z,23.72
2022-08-04T06:33:03.381Z,24.70
2022-08-04T06:35:36.117Z,25.37
2022-08-04T06:38:06.963Z,24.95
2022-08-04T06:40:37.795Z,24.45
2022-08-04T06:43:10.015Z,24.09
2022-08-04T06:45:41.544Z,23.84
2022-08-04T06:48:13.984Z,23.98
2022-08-04T06:51:24.435Z,25.12
2022-08-04T06:53:36.848Z,25.90
2022-08-04T06:56:09.125Z,25.48
2022-08-04T06:58:40.881Z,25.08
2022-08-04T07:01:11.823Z,24.78
2022-08-04T07:03:42.384Z,24.59
2022-08-04T07:06:14.007Z,24.48
2022-08-04T07:08:45.177Z,24.43
2022-08-04T07:11:16.383Z,24.42
2022-08-04T07:13:47.842Z,24.41
2022-08-04T07:16:20.193Z,24.37
2022-08-04T07:19:10.289Z,24.37
2022-08-04T07:22:15.934Z,24.38
2022-08-04T07:24:34.349Z,24.40
2022-08-04T07:27:05.722Z,24.45
2022-08-04T07:29:36.719Z,24.51
2022-08-04T07:32:08.709Z,24.59
2022-08-04T07:34:40.401Z,24.70
2022-08-04T07:37:13.831Z,24.82
2022-08-04T07:39:48.373Z,24.92
2022-08-04T07:42:21.618Z,25.05
2022-08-04T07:44:52.442Z,25.16
2022-08-04T07:47:25.414Z,25.24
2022-08-04T07:49:58.045Z,25.35
2022-08-04T07:52:29.129Z,25.47
2022-08-04T07:55:00.030Z,25.59
2022-08-04T07:57:40.403Z,25.71
2022-08-04T08:00:15.029Z,25.85
2022-08-04T08:02:44.102Z,25.96
2022-08-04T08:05:16.966Z,26.04
2022-08-04T08:07:50.749Z,26.13
2022-08-04T08:10:26.462Z,26.25
2022-08-04T08:12:57.449Z,26.33
2022-08-04T08:15:27.964Z,26.42
2022-08-04T08:18:00.757Z,26.53
2022-08-04T08:20:32.937Z,26.64
2022-08-04T08:23:04.463Z,26.77
2022-08-04T08:25:35.404Z,26.88
2022-08-04T08:28:06.786Z,26.98
2022-08-04T08:30:38.030Z,27.06
2022-08-04T08:33:14.166Z,27.13
2022-08-04T08:35:53.678Z,27.23
2022-08-04T08:38:30.234Z,27.36
2022-08-04T08:41:08.988Z,27.42
2022-08-04T08:44:06.106Z,27.47
2022-08-04T08:46:49.813Z,27.59
2022-08-04T08:50:02.709Z,27.68
2022-08-04T08:52:56.593Z,27.70
2022-08-04T08:55:28.025Z,27.77
2022-08-04T08:58:06.479Z,27.84
2022-08-04T09:00:43.220Z,27.97
2022-08-04T09:03:22.057Z,28.07
2022-08-04T09:05:57.255Z,28.12
2022-08-04T09:08:41.097Z,28.23
2022-08-04T09:11:15.510Z,28.22
2022-08-04T09:13:49.487Z,28.20
2022-08-04T09:16:22.544Z,28.21
2022-08-04T09:18:57.814Z,28.24
2022-08-04T09:21:33.164Z,28.28
2022-08-04T09:24:35.754Z,28.31
2022-08-04T09:27:02.433Z,28.36
2022-08-04T09:29:37.667Z,28.38
2022-08-04T09:32:10.410Z,28.44
2022-08-04T09:34:44.811Z,28.53
2022-08-04T09:37:18.824Z,28.55
2022-08-04T09:39:54.127Z,28.57
2022-08-04T09:42:36.524Z,28.55
2022-08-04T09:45:13.639Z,28.55
2022-08-04T09:47:56.426Z,28.56
2022-08-04T09:50:33.828Z,28.61
2022-08-04T09:53:26.771Z,28.68
2022-08-04T09:56:03.557Z,28.73
2022-08-04T09:58:45.749Z,28.80
2022-08-04T10:01:22.615Z,28.86
2022-08-04T10:03:56.339Z,28.88
2022-08-04T10:06:46.412Z,28.85
2022-08-04T10:09:25.945Z,28.84
2022-08-04T10:12:04.057Z,28.87
2022-08-04T10:14:39.455Z,28.90
2022-08-04T10:17:17.555Z,28.92
2022-08-04T10:19:52.534Z,28.99
2022-08-04T10:22:29.226Z,29.07
2022-08-04T10:25:05.271Z,29.15
2022-08-04T10:27:58.658Z,29.24
2022-08-04T10:30:31.720Z,29.27
2022-08-04T10:33:05.270Z,29.34
2022-08-04T10:35:37.085Z,29.39
2022-08-04T10:38:13.586Z,29.46
2022-08-04T10:40:47.089Z,29.48
2022-08-04T10:43:23.561Z,29.48
2022-08-04T10:45:58.355Z,29.49
2022-08-04T10:48:35.661Z,29.46
2022-08-04T10:51:12.179Z,29.42
2022-08-04T10:53:43.753Z,29.39
2022-08-04T10:56:16.982Z,29.37
2022-08-04T10:58:51.209Z,29.39
2022-08-04T11:02:01.050Z,29.36
2022-08-04T11:04:27.462Z,29.34
2022-08-04T11:07:00.481Z,29.34
2022-08-04T11:09:32.895Z,29.33
2022-08-04T11:12:08.143Z,29.36
2022-08-04T11:14:41.028Z,29.39
2022-08-04T11:17:09.850Z,29.41
2022-08-04T11:19:47.436Z,29.50
2022-08-04T11:22:26.303Z,29.54
2022-08-04T11:24:59.373Z,29.50
2022-08-04T11:27:35.706Z,29.50
2022-08-04T11:30:07.277Z,29.57
2022-08-04T11:32:41.581Z,29.66
2022-08-04T11:35:15.209Z,29.69
2022-08-04T11:37:48.132Z,29.63
2022-08-04T11:40:23.590Z,29.57
2022-08-04T11:42:58.141Z,29.53
2022-08-04T11:45:32.568Z,29.50
2022-08-04T11:48:06.224Z,29.46
2022-08-04T11:50:39.216Z,29.39
2022-08-04T11:53:13.504Z,29.39
2022-08-04T11:56:07.714Z,29.36
2022-08-04T11:58:36.284Z,29.40
2022-08-04T12:01:10.689Z,29.48
2022-08-04T12:04:03.794Z,29.49
2022-08-04T12:06:40.215Z,29.46
2022-08-04T12:09:13.319Z,29.44
2022-08-04T12:11:55.877Z,29.50
2022-08-04T12:14:31.158Z,29.53
2022-08-04T12:17:02.725Z,29.60
2022-08-04T12:20:04.603Z,29.78
2022-08-04T12:22:31.325Z,30.50
2022-08-04T12:25:04.418Z,31.02
2022-08-04T12:27:37.586Z,31.59
2022-08-04T12:31:00.905Z,32.05
2022-08-04T12:33:01.698Z,32.45
2022-08-04T12:35:30.639Z,32.85
2022-08-04T12:38:06.346Z,33.19
2022-08-04T12:40:39.634Z,33.45
2022-08-04T12:43:12.829Z,33.67
2022-08-04T12:45:50.939Z,33.79
2022-08-04T12:48:23.102Z,33.96
2022-08-04T12:50:55.375Z,34.11
2022-08-04T12:53:31.758Z,34.29
2022-08-04T12:56:04.009Z,34.50
2022-08-04T12:58:43.309Z,34.58
2022-08-04T13:02:08.470Z,34.53
2022-08-04T13:04:13.865Z,34.61
2022-08-04T13:06:46.035Z,34.80
2022-08-04T13:09:18.741Z,35.00
2022-08-04T13:11:52.850Z,35.20
2022-08-04T13:14:27.641Z,35.16
2022-08-04T13:17:03.015Z,35.11
2022-08-04T13:19:41.462Z,35.16
2022-08-04T13:22:16.641Z,35.43
2022-08-04T13:24:56.378Z,35.67
2022-08-04T13:27:48.407Z,35.76
2022-08-04T13:30:22.557Z,35.90
2022-08-04T13:32:56.916Z,36.04
2022-08-04T13:35:56.018Z,36.09
2022-08-04T13:38:20.563Z,36.17
2022-08-04T13:40:52.254Z,36.27
2022-08-04T13:44:15.587Z,36.11
2022-08-04T13:46:27.940Z,36.06
2022-08-04T13:49:37.800Z,36.15
2022-08-04T13:51:57.584Z,36.47
2022-08-04T13:54:36.433Z,36.80
2022-08-04T13:57:14.853Z,37.12
2022-08-04T13:59:43.836Z,37.42
2022-08-04T14:02:21.635Z,37.63
2022-08-04T14:04:57.595Z,37.80
2022-08-04T14:07:29.576Z,37.98
2022-08-04T14:10:02.943Z,38.20
2022-08-04T14:12:38.553Z,38.37
2022-08-04T14:16:02.159Z,38.33
2022-08-04T14:18:24.226Z,38.28
2022-08-04T14:21:01.334Z,38.35
2022-08-04T14:23:47.198Z,38.41
2022-08-04T14:26:33.358Z,38.56
2022-08-04T14:29:27.844Z,38.83
2022-08-04T14:32:21.423Z,39.18
2022-08-04T14:34:53.793Z,39.33
2022-08-04T14:37:24.836Z,39.18
2022-08-04T14:40:18.878Z,38.91
2022-08-04T14:42:54.972Z,38.79
2022-08-04T14:45:33.959Z,38.86
2022-08-04T14:48:07.406Z,38.81
2022-08-04T14:50:40.010Z,38.68
2022-08-04T14:53:13.197Z,38.78
2022-08-04T14:55:45.797Z,38.93
2022-08-04T14:58:35.315Z,39.00
2022-08-04T15:01:11.873Z,38.93
2022-08-04T15:03:50.517Z,38.96
2022-08-04T15:06:26.439Z,38.70
2022-08-04T15:08:58.629Z,38.17
2022-08-04T15:11:30.183Z,37.55
2022-08-04T15:14:01.353Z,36.92
2022-08-04T15:16:33.082Z,36.28
2022-08-04T15:19:02.894Z,35.76
2022-08-04T15:21:34.751Z,35.30
2022-08-04T15:24:06.251Z,34.68
2022-08-04T15:26:39.807Z,34.12
2022-08-04T15:29:16.621Z,33.56
2022-08-04T15:32:05.337Z,33.15
2022-08-04T15:34:48.948Z,32.80
2022-08-04T15:37:29.735Z,32.40
2022-08-04T15:40:05.728Z,32.08
2022-08-04T15:42:40.032Z,31.83
2022-08-04T15:46:02.348Z,31.63
2022-08-04T15:48:34.828Z,31.32
2022-08-04T15:51:07.308Z,31.05
2022-08-04T15:54:03.592Z,30.89
2022-08-04T15:57:02.514Z,30.67
2022-08-04T15:59:50.711Z,30.46
2022-08-04T16:02:47.297Z,30.26
2022-08-04T16:05:37.140Z,30.06
2022-08-04T16:08:17.709Z,29.93
2022-08-04T16:10:49.509Z,29.85
2022-08-04T16:13:21.194Z,29.81
2022-08-04T16:15:53.534Z,29.77
2022-08-04T16:18:39.621Z,29.69
2022-08-04T16:21:21.073Z,29.60
2022-08-04T16:24:09.362Z,29.49
2022-08-04T16:26:54.783Z,29.35
2022-08-04T16:29:34.522Z,29.22
2022-08-04T16:32:18.942Z,29.11
2022-08-04T16:34:54.236Z,29.05
2022-08-04T16:37:30.978Z,29.00
2022-08-04T16:40:19.348Z,28.94
2022-08-04T16:42:50.850Z,28.90
2022-08-04T16:45:22.295Z,28.80
2022-08-04T16:48:08.271Z,28.71
2022-08-04T16:50:49.101Z,28.63
2022-08-04T16:53:52.704Z,28.56
2022-08-04T16:56:12.741Z,28.48
2022-08-04T16:58:52.946Z,28.40
2022-08-04T17:01:32.454Z,28.32
2022-08-04T17:04:08.139Z,28.23
2022-08-04T17:06:40.300Z,28.14
2022-08-04T17:09:13.355Z,28.05
2022-08-04T17:11:45.090Z,27.98
2022-08-04T17:14:22.141Z,27.86
2022-08-04T17:16:53.736Z,27.78
2022-08-04T17:19:26.389Z,27.70
2022-08-04T17:22:00.401Z,27.63
2022-08-04T17:24:34.432Z,27.55
2022-08-04T17:28:19.081Z,27.48
2022-08-04T17:29:56.579Z,27.42
2022-08-04T17:32:27.492Z,27.41
2022-08-04T17:35:02.115Z,27.37
2022-08-04T17:40:26.628Z,27.28
2022-08-04T17:44:04.105Z,27.23
2022-08-04T17:46:12.593Z,27.17
2022-08-04T17:48:43.808Z,27.12
2022-08-04T17:51:16.710Z,27.06
2022-08-04T17:54:02.972Z,27.02
2022-08-04T17:56:36.350Z,26.96
2022-08-04T17:59:55.866Z,26.89
2022-08-04T18:02:14.453Z,26.83
2022-08-04T18:05:05.789Z,26.78
2022-08-04T18:08:37.932Z,26.72
2022-08-04T18:10:51.648Z,26.63
2022-08-04T18:13:27.317Z,26.58
2022-08-04T18:16:05.896Z,26.51
2022-08-04T18:18:49.099Z,26.42
2022-08-04T18:21:21.498Z,26.36
2022-08-04T18:23:52.938Z,26.29
2022-08-04T18:26:31.395Z,26.22
2022-08-04T18:29:04.891Z,26.16
2022-08-04T18:31:37.945Z,26.10
2022-08-04T18:34:13.523Z,26.04
2022-08-04T18:36:55.672Z,25.98
2022-08-04T18:40:09.798Z,25.92
2022-08-04T18:42:20.921Z,25.85
2022-08-04T18:44:57.446Z,25.77
2022-08-04T18:47:30.970Z,25.69
2022-08-04T18:50:40.055Z,25.61
2022-08-04T18:53:12.632Z,25.54
2022-08-04T18:55:57.416Z,25.47
2022-08-04T18:58:28.825Z,25.41
2022-08-04T19:01:01.208Z,25.33
2022-08-04T19:03:33.542Z,25.25
2022-08-04T19:06:04.575Z,25.19
2022-08-04T19:08:42.272Z,25.12
2022-08-04T19:11:36.927Z,25.04
2022-08-04T19:14:05.184Z,24.96
2022-08-04T19:16:36.254Z,24.90
2022-08-04T19:19:07.948Z,24.84
2022-08-04T19:22:01.424Z,24.78
2022-08-04T19:24:35.305Z,24.72
2022-08-04T19:27:08.281Z,24.66
2022-08-04T19:29:41.384Z,24.61
2022-08-04T19:32:16.895Z,24.55
2022-08-04T19:34:48.331Z,24.49
2022-08-04T19:38:01.317Z,24.42
2022-08-04T19:40:13.212Z,24.34
2022-08-04T19:42:45.988Z,24.29
2022-08-04T19:45:40.154Z,24.25
2022-08-04T19:48:19.180Z,24.19
2022-08-04T19:50:50.527Z,24.15
2022-08-04T19:53:36.858Z,24.10
2022-08-04T19:56:08.946Z,24.05
2022-08-04T19:58:41.724Z,24.00
2022-08-04T20:16:02.420Z,23.67
2022-08-04T20:18:36.714Z,23.61
2022-08-04T20:21:36.770Z,23.54
2022-08-04T20:24:40.330Z,23.49
2022-08-04T20:27:07.818Z,23.43
2022-08-04T20:29:46.009Z,23.38
2022-08-04T20:32:23.990Z,23.32
2022-08-04T20:34:55.949Z,23.26
2022-08-04T20:37:55.272Z,23.22
2022-08-04T20:40:18.199Z,23.16
2022-08-04T20:42:50.886Z,23.10
2022-08-04T20:45:22.672Z,23.05
2022-08-04T20:47:54.437Z,23.00
2022-08-04T20:50:29.540Z,22.96
2022-08-04T20:53:18.601Z,22.90
2022-08-04T20:55:55.378Z,22.85
2022-08-04T20:58:28.049Z,22.81
2022-08-04T21:00:59.073Z,22.76
2022-08-04T21:03:49.238Z,22.72
2022-08-04T21:06:20.815Z,22.68
2022-08-04T21:11:47.275Z,22.59
2022-08-04T21:14:21.736Z,22.55
2022-08-04T21:17:00.768Z,22.51
2022-08-04T21:19:32.083Z,22.46
2022-08-04T21:22:10.607Z,22.42
2022-08-04T21:24:42.879Z,22.38
2022-08-04T21:27:19.531Z,22.35
2022-08-04T21:29:53.156Z,22.31
2022-08-04T21:32:27.311Z,22.26
2022-08-04T21:35:00.833Z,22.23
2022-08-04T21:37:57.977Z,22.19
2022-08-04T21:40:38.577Z,22.16
2022-08-04T21:43:09.503Z,22.13
2022-08-04T21:45:40.342Z,22.09
2022-08-04T21:48:11.321Z,22.04
2022-08-04T21:50:42.052Z,22.02
2022-08-04T21:53:12.948Z,21.99
2022-08-04T21:56:05.476Z,21.96
2022-08-04T21:58:34.606Z,21.94
2022-08-04T22:01:12.582Z,21.92
2022-08-04T22:03:52.825Z,21.90
2022-08-04T22:06:28.830Z,21.86
2022-08-04T22:08:59.639Z,21.83
2022-08-04T22:11:48.122Z,21.81
2022-08-04T22:14:27.663Z,21.78
2022-08-04T22:17:05.941Z,21.75
2022-08-04T22:19:40.345Z,21.71
2022-08-04T22:22:29.560Z,21.69
2022-08-04T22:25:12.333Z,21.67
2022-08-04T22:28:03.896Z,21.65
2022-08-04T22:30:36.661Z,21.62
2022-08-04T22:33:09.111Z,21.59
2022-08-04T22:35:49.037Z,21.54
2022-08-04T22:38:31.738Z,21.51
2022-08-04T22:41:12.338Z,21.46
2022-08-04T22:43:43.887Z,21.43
2022-08-04T22:46:21.660Z,21.41
2022-08-04T22:48:52.941Z,21.37
2022-08-04T22:51:23.984Z,21.62
2022-08-04T22:53:58.030Z,22.83
2022-08-04T22:56:38.031Z,23.12
2022-08-04T22:59:11.520Z,22.70
2022-08-04T23:02:00.910Z,22.34
2022-08-04T23:04:33.213Z,22.07
2022-08-04T23:07:05.255Z,21.90
2022-08-04T23:09:50.394Z,21.75
2022-08-04T23:12:25.501Z,21.60
2022-08-04T23:14:58.346Z,21.49
2022-08-04T23:17:32.926Z,21.39
2022-08-04T23:20:23.534Z,21.28
2022-08-04T23:23:14.850Z,21.17
2022-08-04T23:26:07.760Z,21.08
2022-08-04T23:28:40.297Z,21.42
2022-08-04T23:31:11.130Z,22.64
2022-08-04T23:33:49.240Z,23.08
2022-08-04T23:36:29.637Z,22.58
2022-08-04T23:39:04.155Z,22.12
2022-08-04T23:41:51.035Z,21.82
2022-08-04T23:44:28.176Z,21.56
2022-08-04T23:47:02.836Z,21.64
2022-08-04T23:49:44.559Z,22.72
2022-08-04T23:52:28.052Z,23.26
2022-08-04T23:55:01.866Z,22.71
2022-08-04T23:58:06.468Z,22.22
